Time,TemperatureF,DewpointF,PressureIn,WindDirection,WindDirectionDegrees,WindSpeedMPH,WindSpeedGustMPH,Humidity,HourlyPrecipIn,Conditions,Clouds,dailyrainin,SoftwareType,DateUTC
2013-02-02 00:02:00,18.1,-8.7,30.15,North,-999,0.0,0.0,29,0.00,,,-99.99,FreeWX-Wi 1.02,2013-02-02 05:02:00,
2013-02-02 00:07:00,18.7,-8.3,30.18,North,-999,0.0,0.0,29,0.00,,,-99.99,FreeWX-Wi 1.02,2013-02-02 05:07:00,
2013-02-02 00:12:00,19.0,-8.0,30.18,North,-999,0.0,0.0,29,0.00,,,-99.99,FreeWX-Wi 1.02,2013-02-02 05:12:00,
2013-02-02 00:17:00,18.9,-8.1,30.18,North,-999,0.0,0.0,29,0.00,,,-99.99,FreeWX-Wi 1.02,2013-02-02 05:17:00,
2013-02-02 00:22:00,18.7,-8.3,30.18,North,-999,0.0,0.0,29,0.00,,,-99.99,FreeWX-Wi 1.02,2013-02-02 05:22:00,
2013-02-02 00:27:00,19.0,-8.0,30.18,North,-999,0.0,4.0,29,0.00,,,-99.99,FreeWX-Wi 1.02,2013-02-02 05:27:00,
2013-02-02 00:32:00,19.0,-8.0,30.18,North,-999,0.0,0.0,29,0.00,,,-99.99,FreeWX-Wi 1.02,2013-02-02 05:32:00,
2013-02-02 00:37:00,19.0,-8.0,30.18,North,-999,0.0,0.0,29,0.00,,,-99.99,FreeWX-Wi 1.02,2013-02-02 05:37:00,
2013-02-02 00:42:00,18.7,-8.3,30.18,North,-999,0.0,0.0,29,0.00,,,-99.99,FreeWX-Wi 1.02,2013-02-02 05:42:00,
2013-02-02 00:47:00,18.5,-8.3,30.18,North,-999,0.0,3.1,29,0.00,,,-99.99,FreeWX-Wi 1.02,2013-02-02 05:47:00,
2013-02-02 00:52:00,18.7,-8.3,30.15,North,-999,0.0,0.0,29,0.00,,,-99.99,FreeWX-Wi 1.02,2013-02-02 05:52:00,
2013-02-02 00:57:00,18.7,-8.3,30.15,North,-999,0.0,4.0,29,0.00,,,-99.99,FreeWX-Wi 1.02,2013-02-02 05:57:00,
2013-02-02 01:02:00,19.4,-7.6,30.15,North,-999,0.0,3.1,29,0.00,,,-99.99,FreeWX-Wi 1.02,2013-02-02 06:02:00,
2013-02-02 01:07:00,19.8,-7.2,30.18,North,-999,0.0,3.1,29,0.00,,,-99.99,FreeWX-Wi 1.02,2013-02-02 06:07:00,
2013-02-02 01:12:00,19.9,-7.1,30.18,North,-999,0.0,4.0,29,0.00,,,-99.99,FreeWX-Wi 1.02,2013-02-02 06:12:00,
2013-02-02 01:17:00,19.9,-7.1,30.18,WNW,287,1.0,5.4,29,0.00,,,-99.99,FreeWX-Wi 1.02,2013-02-02 06:17:00,
2013-02-02 01:22:00,20.1,-7.1,30.18,WNW,290,1.0,4.0,29,0.00,,,-99.99,FreeWX-Wi 1.02,2013-02-02 06:22:00,
2013-02-02 01:27:00,20.1,-7.1,30.18,WNW,291,1.0,6.3,29,0.00,,,-99.99,FreeWX-Wi 1.02,2013-02-02 06:27:00,
2013-02-02 01:32:00,19.9,-7.1,30.18,WNW,292,1.0,3.6,29,0.00,,,-99.99,FreeWX-Wi 1.02,2013-02-02 06:32:00,
2013-02-02 01:37:00,20.3,-6.9,30.18,WNW,293,1.0,4.0,29,0.00,,,-99.99,FreeWX-Wi 1.02,2013-02-02 06:37:00,
2013-02-02 01:42:00,20.1,-7.1,30.18,WNW,293,1.0,4.9,29,0.00,,,-99.99,FreeWX-Wi 1.02,2013-02-02 06:42:00,
2013-02-02 01:47:00,19.9,-7.1,30.18,WNW,294,1.0,3.1,29,0.00,,,-99.99,FreeWX-Wi 1.02,2013-02-02 06:47:00,
2013-02-02 01:52:00,20.1,-7.1,30.18,WNW,295,1.0,3.1,29,0.00,,,-99.99,FreeWX-Wi 1.02,2013-02-02 06:52:00,
2013-02-02 01:57:00,19.9,-7.1,30.18,North,-999,0.0,0.0,29,0.00,,,-99.99,FreeWX-Wi 1.02,2013-02-02 06:57:00,
2013-02-02 02:02:00,19.8,-7.2,30.18,North,-999,0.0,0.0,29,0.00,,,-99.99,FreeWX-Wi 1.02,2013-02-02 07:02:00,
2013-02-02 02:07:00,19.6,-7.4,30.18,North,-999,0.0,0.0,29,0.00,,,-99.99,FreeWX-Wi 1.02,2013-02-02 07:07:00,
2013-02-02 02:12:00,19.4,-7.6,30.18,North,-999,0.0,0.0,29,0.00,,,-99.99,FreeWX-Wi 1.02,2013-02-02 07:12:00,
2013-02-02 02:17:00,19.4,-7.6,30.18,North,-999,0.0,0.0,29,0.00,,,-99.99,FreeWX-Wi 1.02,2013-02-02 07:17:00,
2013-02-02 02:22:00,19.4,-7.6,30.21,North,-999,0.0,0.0,29,0.00,,,-99.99,FreeWX-Wi 1.02,2013-02-02 07:22:00,
2013-02-02 02:27:00,19.4,-7.6,30.21,North,-999,0.0,0.0,29,0.00,,,-99.99,FreeWX-Wi 1.02,2013-02-02 07:27:00,
2013-02-02 02:32:00,19.2,-7.8,30.21,North,-999,0.0,0.0,29,0.00,,,-99.99,FreeWX-Wi 1.02,2013-02-02 07:32:00,
2013-02-02 02:37:00,19.0,-8.0,30.21,North,-999,0.0,0.0,29,0.00,,,-99.99,FreeWX-Wi 1.02,2013-02-02 07:37:00,
2013-02-02 02:42:00,18.7,-8.3,30.21,North,-999,0.0,0.0,29,0.00,,,-99.99,FreeWX-Wi 1.02,2013-02-02 07:42:00,
2013-02-02 02:47:00,18.5,-8.3,30.21,North,-999,0.0,0.0,29,0.00,,,-99.99,FreeWX-Wi 1.02,2013-02-02 07:47:00,
2013-02-02 02:52:00,18.5,-8.3,30.21,North,-999,0.0,0.0,29,0.00,,,-99.99,FreeWX-Wi 1.02,2013-02-02 07:52:00,
2013-02-02 02:57:00,18.9,-8.1,30.21,North,-999,0.0,0.0,29,0.00,,,-99.99,FreeWX-Wi 1.02,2013-02-02 07:57:00,
2013-02-02 03:08:00,18.1,-8.7,30.21,North,-999,0.0,0.0,29,0.00,,,-99.99,FreeWX-Wi 1.02,2013-02-02 08:08:00,
2013-02-02 03:13:00,17.8,-9.0,30.21,North,-999,0.0,0.0,29,0.00,,,-99.99,FreeWX-Wi 1.02,2013-02-02 08:13:00,
2013-02-02 03:18:00,18.0,-8.9,30.21,North,-999,0.0,0.0,29,0.00,,,-99.99,FreeWX-Wi 1.02,2013-02-02 08:18:00,
2013-02-02 03:23:00,18.1,-8.7,30.21,North,-999,0.0,0.0,29,0.00,,,-99.99,FreeWX-Wi 1.02,2013-02-02 08:23:00,
2013-02-02 03:28:00,18.1,-8.7,30.21,North,-999,0.0,0.0,29,0.00,,,-99.99,FreeWX-Wi 1.02,2013-02-02 08:28:00,
2013-02-02 03:33:00,18.0,-8.9,30.21,North,-999,0.0,0.0,29,0.00,,,-99.99,FreeWX-Wi 1.02,2013-02-02 08:33:00,
2013-02-02 03:38:00,17.6,-8.5,30.21,North,-999,0.0,0.0,30,0.00,,,-99.99,FreeWX-Wi 1.02,2013-02-02 08:38:00,
2013-02-02 03:43:00,17.2,-8.9,30.21,North,-999,0.0,0.0,30,0.00,,,-99.99,FreeWX-Wi 1.02,2013-02-02 08:43:00,
2013-02-02 03:48:00,17.1,-8.3,30.21,North,-999,0.0,0.0,31,0.00,,,-99.99,FreeWX-Wi 1.02,2013-02-02 08:48:00,
2013-02-02 03:53:00,16.9,-8.5,30.21,North,-999,0.0,0.0,31,0.00,,,-99.99,FreeWX-Wi 1.02,2013-02-02 08:53:00,
2013-02-02 03:58:00,16.9,-8.5,30.21,North,-999,0.0,0.0,31,0.00,,,-99.99,FreeWX-Wi 1.02,2013-02-02 08:58:00,
2013-02-02 04:03:00,16.9,-7.2,30.21,North,-999,0.0,0.0,33,0.00,,,-99.99,FreeWX-Wi 1.02,2013-02-02 09:03:00,
2013-02-02 04:08:00,16.7,-7.4,30.21,North,-999,0.0,0.0,33,0.00,,,-99.99,FreeWX-Wi 1.02,2013-02-02 09:08:00,
2013-02-02 04:13:00,16.9,-7.2,30.21,North,-999,0.0,0.0,33,0.00,,,-99.99,FreeWX-Wi 1.02,2013-02-02 09:13:00,
2013-02-02 04:18:00,16.9,-7.2,30.21,North,-999,0.0,0.0,33,0.00,,,-99.99,FreeWX-Wi 1.02,2013-02-02 09:18:00,
2013-02-02 04:23:00,16.7,-7.4,30.21,North,-999,0.0,0.0,33,0.00,,,-99.99,FreeWX-Wi 1.02,2013-02-02 09:23:00,
2013-02-02 04:28:00,16.5,-8.9,30.21,North,-999,0.0,0.0,31,0.00,,,-99.99,FreeWX-Wi 1.02,2013-02-02 09:28:00,
2013-02-02 04:33:00,16.5,-7.4,30.21,North,-999,0.0,0.0,33,0.00,,,-99.99,FreeWX-Wi 1.02,2013-02-02 09:33:00,
2013-02-02 04:38:00,16.3,-8.9,30.21,North,-999,0.0,0.0,31,0.00,,,-99.99,FreeWX-Wi 1.02,2013-02-02 09:38:00,
2013-02-02 04:43:00,16.2,-7.8,30.21,North,-999,0.0,0.0,33,0.00,,,-99.99,FreeWX-Wi 1.02,2013-02-02 09:43:00,
2013-02-02 04:48:00,16.2,-7.8,30.24,North,-999,0.0,0.0,33,0.00,,,-99.99,FreeWX-Wi 1.02,2013-02-02 09:48:00,
2013-02-02 04:53:00,16.2,-7.8,30.24,North,-999,0.0,0.0,33,0.00,,,-99.99,FreeWX-Wi 1.02,2013-02-02 09:53:00,
2013-02-02 04:58:00,16.2,-7.8,30.24,North,-999,0.0,0.0,33,0.00,,,-99.99,FreeWX-Wi 1.02,2013-02-02 09:58:00,
2013-02-02 05:03:00,16.0,-8.0,30.24,North,-999,0.0,0.0,33,0.00,,,-99.99,FreeWX-Wi 1.02,2013-02-02 10:03:00,
2013-02-02 05:08:00,16.0,-8.0,30.24,North,-999,0.0,0.0,33,0.00,,,-99.99,FreeWX-Wi 1.02,2013-02-02 10:08:00,
2013-02-02 05:13:00,16.2,-7.8,30.24,North,-999,0.0,0.0,33,0.00,,,-99.99,FreeWX-Wi 1.02,2013-02-02 10:13:00,
2013-02-02 05:18:00,16.2,-7.8,30.24,North,-999,0.0,0.0,33,0.00,,,-99.99,FreeWX-Wi 1.02,2013-02-02 10:18:00,
2013-02-02 05:23:00,16.2,-4.9,30.24,North,-999,0.0,0.0,38,0.00,,,-99.99,FreeWX-Wi 1.02,2013-02-02 10:23:00,
2013-02-02 05:28:00,16.2,-2.4,30.24,North,-999,0.0,0.0,43,0.00,,,-99.99,FreeWX-Wi 1.02,2013-02-02 10:28:00,
2013-02-02 05:33:00,16.0,-2.6,30.24,North,-999,0.0,0.0,43,0.00,,,-99.99,FreeWX-Wi 1.02,2013-02-02 10:33:00,
2013-02-02 05:38:00,15.8,-2.2,30.24,North,-999,0.0,0.0,44,0.00,,,-99.99,FreeWX-Wi 1.02,2013-02-02 10:38:00,
2013-02-02 05:43:00,15.8,-2.2,30.24,North,-999,0.0,0.0,44,0.00,,,-99.99,FreeWX-Wi 1.02,2013-02-02 10:43:00,
2013-02-02 05:48:00,15.8,-2.2,30.24,North,-999,0.0,0.0,44,0.00,,,-99.99,FreeWX-Wi 1.02,2013-02-02 10:48:00,
2013-02-02 05:53:00,15.8,-3.6,30.24,North,-999,0.0,0.0,41,0.00,,,-99.99,FreeWX-Wi 1.02,2013-02-02 10:53:00,
2013-02-02 05:58:00,15.4,-4.0,30.24,North,-999,0.0,0.0,41,0.00,,,-99.99,FreeWX-Wi 1.02,2013-02-02 10:58:00,
2013-02-02 06:03:00,15.4,-4.0,30.24,North,-999,0.0,0.0,41,0.00,,,-99.99,FreeWX-Wi 1.02,2013-02-02 11:03:00,
2013-02-02 06:08:00,15.3,-4.2,30.24,North,-999,0.0,0.0,41,0.00,,,-99.99,FreeWX-Wi 1.02,2013-02-02 11:08:00,
2013-02-02 06:13:00,15.3,-4.2,30.24,North,-999,0.0,0.0,41,0.00,,,-99.99,FreeWX-Wi 1.02,2013-02-02 11:13:00,
2013-02-02 06:18:00,15.3,-2.7,30.24,North,-999,0.0,0.0,44,0.00,,,-99.99,FreeWX-Wi 1.02,2013-02-02 11:18:00,
2013-02-02 06:23:00,15.3,-1.8,30.24,North,-999,0.0,0.0,46,0.00,,,-99.99,FreeWX-Wi 1.02,2013-02-02 11:23:00,
2013-02-02 06:28:00,15.1,-2.9,30.24,North,-999,0.0,0.0,44,0.00,,,-99.99,FreeWX-Wi 1.02,2013-02-02 11:28:00,
2013-02-02 06:33:00,15.1,-2.9,30.24,North,-999,0.0,0.0,44,0.00,,,-99.99,FreeWX-Wi 1.02,2013-02-02 11:33:00,
2013-02-02 06:38:00,15.1,-4.4,30.24,North,-999,0.0,0.0,41,0.00,,,-99.99,FreeWX-Wi 1.02,2013-02-02 11:38:00,
2013-02-02 06:43:00,14.9,-4.5,30.24,North,-999,0.0,0.0,41,0.00,,,-99.99,FreeWX-Wi 1.02,2013-02-02 11:43:00,
2013-02-02 06:48:00,14.9,-3.1,30.24,North,-999,0.0,0.0,44,0.00,,,-99.99,FreeWX-Wi 1.02,2013-02-02 11:48:00,
2013-02-02 06:53:00,14.9,-3.1,30.24,North,-999,0.0,0.0,44,0.00,,,-99.99,FreeWX-Wi 1.02,2013-02-02 11:53:00,
2013-02-02 06:58:00,15.1,-2.9,30.24,North,-999,0.0,0.0,44,0.00,,,-99.99,FreeWX-Wi 1.02,2013-02-02 11:58:00,
2013-02-02 07:03:00,15.1,-2.9,30.24,North,-999,0.0,0.0,44,0.00,,,-99.99,FreeWX-Wi 1.02,2013-02-02 12:03:00,
2013-02-02 07:08:00,14.9,-3.1,30.24,North,-999,0.0,0.0,44,0.00,,,-99.99,FreeWX-Wi 1.02,2013-02-02 12:08:00,
2013-02-02 07:13:00,14.9,-3.1,30.24,North,-999,0.0,0.0,44,0.00,,,-99.99,FreeWX-Wi 1.02,2013-02-02 12:13:00,
2013-02-02 07:18:00,14.9,-3.1,30.27,North,-999,0.0,0.0,44,0.00,,,-99.99,FreeWX-Wi 1.02,2013-02-02 12:18:00,
2013-02-02 07:23:00,15.4,1.0,30.27,North,-999,0.0,0.0,52,0.00,,,-99.99,FreeWX-Wi 1.02,2013-02-02 12:23:00,
2013-02-02 07:28:00,15.3,1.6,30.27,North,-999,0.0,0.0,54,0.00,,,-99.99,FreeWX-Wi 1.02,2013-02-02 12:28:00,
2013-02-02 07:33:00,15.4,1.8,30.27,North,-999,0.0,0.0,54,0.00,,,-99.99,FreeWX-Wi 1.02,2013-02-02 12:33:00,
2013-02-02 07:38:00,0.0,1.8,-100.00,North,-999,0.0,0.0,54,0.00,,,-99.99,FreeWX-Wi 1.02,2013-02-02 12:38:00,
2013-02-02 07:48:00,16.9,1.9,30.27,North,-999,0.0,0.0,51,0.00,,,-99.99,FreeWX-Wi 1.02,2013-02-02 12:48:00,
2013-02-02 07:53:00,16.9,2.3,30.27,North,-999,0.0,0.0,52,0.00,,,-99.99,FreeWX-Wi 1.02,2013-02-02 12:53:00,
2013-02-02 07:58:00,16.9,2.7,30.27,North,-999,0.0,0.0,53,0.00,,,-99.99,FreeWX-Wi 1.02,2013-02-02 12:58:00,
2013-02-02 08:03:00,17.1,2.8,30.27,North,-999,0.0,0.0,53,0.00,,,-99.99,FreeWX-Wi 1.02,2013-02-02 13:03:00,
2013-02-02 08:08:00,18.1,3.6,30.27,North,-999,0.0,0.0,52,0.00,,,-99.99,FreeWX-Wi 1.02,2013-02-02 13:08:00,
2013-02-02 08:13:00,19.0,3.6,30.27,North,-999,0.0,0.0,50,0.00,,,-99.99,FreeWX-Wi 1.02,2013-02-02 13:13:00,
2013-02-02 08:18:00,20.1,4.1,30.27,North,-999,0.0,0.0,49,0.00,,,-99.99,FreeWX-Wi 1.02,2013-02-02 13:18:00,
2013-02-02 08:23:00,20.3,3.7,30.27,North,-999,0.0,0.0,48,0.00,,,-99.99,FreeWX-Wi 1.02,2013-02-02 13:23:00,
2013-02-02 08:28:00,21.4,3.4,30.27,North,-999,0.0,3.1,45,0.00,,,-99.99,FreeWX-Wi 1.02,2013-02-02 13:28:00,
2013-02-02 08:33:00,22.3,-4.4,30.27,North,-999,0.0,2.2,30,0.00,,,-99.99,FreeWX-Wi 1.02,2013-02-02 13:33:00,
2013-02-02 08:38:00,22.5,-4.9,30.27,North,-999,0.0,3.6,29,0.00,,,-99.99,FreeWX-Wi 1.02,2013-02-02 13:38:00,
2013-02-02 08:43:00,22.6,-4.7,30.27,North,-999,0.0,2.7,29,0.00,,,-99.99,FreeWX-Wi 1.02,2013-02-02 13:43:00,
2013-02-02 08:48:00,23.0,-4.5,30.27,North,-999,0.0,3.1,29,0.00,,,-99.99,FreeWX-Wi 1.02,2013-02-02 13:48:00,
2013-02-02 08:53:00,23.4,-4.9,30.27,NW,305,1.0,4.0,28,0.00,,,-99.99,FreeWX-Wi 1.02,2013-02-02 13:53:00,
2013-02-02 08:58:00,23.9,-4.4,30.27,WNW,300,1.0,2.7,28,0.00,,,-99.99,FreeWX-Wi 1.02,2013-02-02 13:58:00,
2013-02-02 09:03:00,25.2,-3.3,30.27,WNW,289,1.0,5.4,28,0.00,,,-99.99,FreeWX-Wi 1.02,2013-02-02 14:03:00,
2013-02-02 09:08:00,24.6,-3.8,30.27,WNW,282,1.0,5.4,28,0.00,,,-99.99,FreeWX-Wi 1.02,2013-02-02 14:08:00,
2013-02-02 09:13:00,26.4,-2.2,30.27,West,277,1.0,4.0,28,0.00,,,-99.99,FreeWX-Wi 1.02,2013-02-02 14:13:00,
2013-02-02 09:18:00,27.0,-2.6,30.27,West,274,1.0,3.1,27,0.00,,,-99.99,FreeWX-Wi 1.02,2013-02-02 14:18:00,
2013-02-02 09:23:00,29.5,-0.4,30.27,West,272,1.0,3.1,27,0.00,,,-99.99,FreeWX-Wi 1.02,2013-02-02 14:23:00,
2013-02-02 09:28:00,31.5,1.4,30.27,West,270,1.0,4.0,27,0.00,,,-99.99,FreeWX-Wi 1.02,2013-02-02 14:28:00,
2013-02-02 09:33:00,31.8,1.8,30.27,West,272,1.0,3.6,27,0.00,,,-99.99,FreeWX-Wi 1.02,2013-02-02 14:33:00,
2013-02-02 09:38:00,33.3,3.0,30.27,West,265,1.0,0.0,27,0.00,,,-99.99,FreeWX-Wi 1.02,2013-02-02 14:38:00,
2013-02-02 09:43:00,30.4,0.5,30.27,West,265,1.0,3.1,27,0.00,,,-99.99,FreeWX-Wi 1.02,2013-02-02 14:43:00,
2013-02-02 09:48:00,27.3,-2.2,30.27,West,266,1.0,3.6,27,0.00,,,-99.99,FreeWX-Wi 1.02,2013-02-02 14:48:00,
2013-02-02 09:53:00,27.0,-2.6,30.27,West,266,1.0,3.6,27,0.00,,,-99.99,FreeWX-Wi 1.02,2013-02-02 14:53:00,
2013-02-02 09:58:00,26.4,-2.2,30.27,North,-999,0.0,4.0,28,0.00,,,-99.99,FreeWX-Wi 1.02,2013-02-02 14:58:00,
2013-02-02 10:03:00,25.7,-2.9,30.27,North,-999,0.0,3.6,28,0.00,,,-99.99,FreeWX-Wi 1.02,2013-02-02 15:03:00,
2013-02-02 10:08:00,25.5,-2.9,30.27,West,279,1.0,3.6,28,0.00,,,-99.99,FreeWX-Wi 1.02,2013-02-02 15:08:00,
2013-02-02 10:13:00,25.3,-3.1,30.27,West,274,1.0,4.0,28,0.00,,,-99.99,FreeWX-Wi 1.02,2013-02-02 15:13:00,
2013-02-02 10:18:00,25.7,-2.9,30.24,West,259,1.0,3.6,28,0.00,,,-99.99,FreeWX-Wi 1.02,2013-02-02 15:18:00,
2013-02-02 10:23:00,26.2,-2.4,30.24,WSW,241,1.0,4.9,28,0.00,,,-99.99,FreeWX-Wi 1.02,2013-02-02 15:23:00,
2013-02-02 10:28:00,27.7,-1.8,30.24,SSW,199,1.0,4.0,27,0.00,,,-99.99,FreeWX-Wi 1.02,2013-02-02 15:28:00,
2013-02-02 10:33:00,29.3,-0.4,30.24,SSE,155,1.0,3.6,27,0.00,,,-99.99,FreeWX-Wi 1.02,2013-02-02 15:33:00,
2013-02-02 10:38:00,29.7,-0.2,30.24,SE,146,1.0,4.0,27,0.00,,,-99.99,FreeWX-Wi 1.02,2013-02-02 15:38:00,
2013-02-02 10:43:00,30.4,0.5,30.24,SE,135,2.0,3.6,27,0.00,,,-99.99,FreeWX-Wi 1.02,2013-02-02 15:43:00,
2013-02-02 10:48:00,30.6,0.7,30.24,SSE,153,2.0,4.5,27,0.00,,,-99.99,FreeWX-Wi 1.02,2013-02-02 15:48:00,
2013-02-02 10:53:00,30.0,0.1,30.24,SSE,156,2.0,4.5,27,0.00,,,-99.99,FreeWX-Wi 1.02,2013-02-02 15:53:00,
2013-02-02 10:58:00,29.3,-0.4,30.24,SW,220,2.0,4.0,27,0.00,,,-99.99,FreeWX-Wi 1.02,2013-02-02 15:58:00,
2013-02-02 11:03:00,28.4,-1.3,30.24,SSW,202,2.0,6.3,27,0.00,,,-99.99,FreeWX-Wi 1.02,2013-02-02 16:03:00,
2013-02-02 11:08:00,28.8,-0.9,30.24,SSE,154,2.0,3.1,27,0.00,,,-99.99,FreeWX-Wi 1.02,2013-02-02 16:08:00,
2013-02-02 11:13:00,29.5,-0.4,30.24,SE,144,1.0,4.0,27,0.00,,,-99.99,FreeWX-Wi 1.02,2013-02-02 16:13:00,
2013-02-02 11:18:00,32.4,2.1,30.24,SSE,148,1.0,4.0,27,0.00,,,-99.99,FreeWX-Wi 1.02,2013-02-02 16:18:00,
2013-02-02 11:23:00,34.0,2.7,30.24,SSE,147,1.0,4.9,26,0.00,,,-99.99,FreeWX-Wi 1.02,2013-02-02 16:23:00,
2013-02-02 11:28:00,34.5,3.2,30.24,SE,140,1.0,6.3,26,0.00,,,-99.99,FreeWX-Wi 1.02,2013-02-02 16:28:00,
2013-02-02 11:33:00,33.8,2.7,30.21,SSE,147,1.0,3.6,26,0.00,,,-99.99,FreeWX-Wi 1.02,2013-02-02 16:33:00,
2013-02-02 11:38:00,32.0,1.8,30.21,SSE,151,1.0,2.7,27,0.00,,,-99.99,FreeWX-Wi 1.02,2013-02-02 16:38:00,
2013-02-02 11:43:00,31.1,1.0,30.21,SE,145,2.0,5.8,27,0.00,,,-99.99,FreeWX-Wi 1.02,2013-02-02 16:43:00,
2013-02-02 11:48:00,30.7,0.7,30.21,SE,145,2.0,4.9,27,0.00,,,-99.99,FreeWX-Wi 1.02,2013-02-02 16:48:00,
2013-02-02 11:53:00,30.0,0.1,30.21,SSE,153,2.0,5.8,27,0.00,,,-99.99,FreeWX-Wi 1.02,2013-02-02 16:53:00,
2013-02-02 11:58:00,29.5,-0.4,30.21,SSE,158,2.0,4.9,27,0.00,,,-99.99,FreeWX-Wi 1.02,2013-02-02 16:58:00,
2013-02-02 12:03:00,29.5,-0.4,30.21,SSE,165,2.0,5.4,27,0.00,,,-99.99,FreeWX-Wi 1.02,2013-02-02 17:03:00,
2013-02-02 12:08:00,31.6,1.6,30.21,South,173,2.0,3.6,27,0.00,,,-99.99,FreeWX-Wi 1.02,2013-02-02 17:08:00,
2013-02-02 12:13:00,29.5,-0.4,30.21,South,170,2.0,5.4,27,0.00,,,-99.99,FreeWX-Wi 1.02,2013-02-02 17:13:00,
2013-02-02 12:18:00,29.5,-0.4,30.21,South,180,2.0,4.9,27,0.00,,,-99.99,FreeWX-Wi 1.02,2013-02-02 17:18:00,
2013-02-02 12:23:00,28.9,-0.8,30.21,SSW,194,2.0,4.0,27,0.00,,,-99.99,FreeWX-Wi 1.02,2013-02-02 17:23:00,
2013-02-02 12:28:00,29.8,0.0,30.21,South,191,2.0,4.0,27,0.00,,,-99.99,FreeWX-Wi 1.02,2013-02-02 17:28:00,
2013-02-02 12:33:00,31.1,1.0,30.18,South,187,2.0,4.0,27,0.00,,,-99.99,FreeWX-Wi 1.02,2013-02-02 17:33:00,
2013-02-02 12:38:00,31.3,1.2,30.18,SSW,194,2.0,4.0,27,0.00,,,-99.99,FreeWX-Wi 1.02,2013-02-02 17:38:00,
2013-02-02 12:43:00,31.8,1.8,30.18,South,190,2.0,3.1,27,0.00,,,-99.99,FreeWX-Wi 1.02,2013-02-02 17:43:00,
2013-02-02 12:48:00,31.3,1.2,30.18,South,176,2.0,4.0,27,0.00,,,-99.99,FreeWX-Wi 1.02,2013-02-02 17:48:00,
2013-02-02 12:53:00,32.2,1.9,30.18,SSE,162,2.0,4.0,27,0.00,,,-99.99,FreeWX-Wi 1.02,2013-02-02 17:53:00,
2013-02-02 12:58:00,33.3,3.0,30.18,SSE,158,2.0,4.0,27,0.00,,,-99.99,FreeWX-Wi 1.02,2013-02-02 17:58:00,
2013-02-02 13:03:00,33.8,2.7,30.15,SSE,155,2.0,4.0,26,0.00,,,-99.99,FreeWX-Wi 1.02,2013-02-02 18:03:00,
2013-02-02 13:08:00,33.4,3.0,30.15,SSE,156,2.0,5.8,27,0.00,,,-99.99,FreeWX-Wi 1.02,2013-02-02 18:08:00,
2013-02-02 13:13:00,35.1,3.7,30.15,South,169,2.0,4.9,26,0.00,,,-99.99,FreeWX-Wi 1.02,2013-02-02 18:13:00,
2013-02-02 13:18:00,35.6,4.1,30.15,South,187,2.0,4.0,26,0.00,,,-99.99,FreeWX-Wi 1.02,2013-02-02 18:18:00,
2013-02-02 13:23:00,34.2,2.8,30.15,SW,217,2.0,3.6,26,0.00,,,-99.99,FreeWX-Wi 1.02,2013-02-02 18:23:00,
2013-02-02 13:28:00,31.3,1.2,30.15,SSW,206,2.0,3.6,27,0.00,,,-99.99,FreeWX-Wi 1.02,2013-02-02 18:28:00,
2013-02-02 13:33:00,31.1,1.0,30.15,SSW,196,2.0,5.8,27,0.00,,,-99.99,FreeWX-Wi 1.02,2013-02-02 18:33:00,
2013-02-02 13:38:00,31.8,1.8,30.15,South,182,1.0,5.8,27,0.00,,,-99.99,FreeWX-Wi 1.02,2013-02-02 18:38:00,
2013-02-02 13:43:00,30.4,0.5,30.15,SSE,166,2.0,5.8,27,0.00,,,-99.99,FreeWX-Wi 1.02,2013-02-02 18:43:00,
2013-02-02 13:48:00,30.2,0.3,30.15,SSE,154,2.0,3.6,27,0.00,,,-99.99,FreeWX-Wi 1.02,2013-02-02 18:48:00,
2013-02-02 13:53:00,30.9,0.9,30.15,SE,129,2.0,3.6,27,0.00,,,-99.99,FreeWX-Wi 1.02,2013-02-02 18:53:00,
2013-02-02 13:58:00,30.4,0.5,30.15,SE,142,2.0,5.8,27,0.00,,,-99.99,FreeWX-Wi 1.02,2013-02-02 18:58:00,
2013-02-02 14:03:00,30.0,0.1,30.12,SE,143,2.0,5.4,27,0.00,,,-99.99,FreeWX-Wi 1.02,2013-02-02 19:03:00,
2013-02-02 14:08:00,29.1,-0.6,30.12,SE,139,2.0,4.9,27,0.00,,,-99.99,FreeWX-Wi 1.02,2013-02-02 19:08:00,
2013-02-02 14:13:00,28.8,-0.9,30.12,SE,145,2.0,4.9,27,0.00,,,-99.99,FreeWX-Wi 1.02,2013-02-02 19:13:00,
2013-02-02 14:18:00,29.5,-0.4,30.12,SSE,163,2.0,4.0,27,0.00,,,-99.99,FreeWX-Wi 1.02,2013-02-02 19:18:00,
2013-02-02 14:23:00,29.3,-0.4,30.12,South,175,2.0,5.4,27,0.00,,,-99.99,FreeWX-Wi 1.02,2013-02-02 19:23:00,
2013-02-02 14:28:00,29.1,-0.6,30.12,South,176,2.0,4.0,27,0.00,,,-99.99,FreeWX-Wi 1.02,2013-02-02 19:28:00,
2013-02-02 14:33:00,28.8,-0.9,30.12,South,181,2.0,5.4,27,0.00,,,-99.99,FreeWX-Wi 1.02,2013-02-02 19:33:00,
2013-02-02 14:38:00,29.7,-0.2,30.12,South,174,2.0,5.8,27,0.00,,,-99.99,FreeWX-Wi 1.02,2013-02-02 19:38:00,
2013-02-02 14:43:00,29.3,-0.4,30.12,South,172,2.0,3.1,27,0.00,,,-99.99,FreeWX-Wi 1.02,2013-02-02 19:43:00,
2013-02-02 14:48:00,29.8,0.0,30.12,SSW,196,2.0,3.6,27,0.00,,,-99.99,FreeWX-Wi 1.02,2013-02-02 19:48:00,
2013-02-02 14:53:00,30.7,0.7,30.12,WNW,300,1.0,4.0,27,0.00,,,-99.99,FreeWX-Wi 1.02,2013-02-02 19:53:00,
2013-02-02 14:58:00,30.2,0.3,30.12,WNW,292,1.0,4.9,27,0.00,,,-99.99,FreeWX-Wi 1.02,2013-02-02 19:58:00,
2013-02-02 15:03:00,30.0,0.1,30.12,WNW,289,1.0,5.4,27,0.00,,,-99.99,FreeWX-Wi 1.02,2013-02-02 20:03:00,
2013-02-02 15:08:00,29.5,-0.4,30.12,West,273,1.0,8.1,27,0.00,,,-99.99,FreeWX-Wi 1.02,2013-02-02 20:08:00,
2013-02-02 15:13:00,28.8,-0.9,30.12,SW,231,2.0,5.8,27,0.00,,,-99.99,FreeWX-Wi 1.02,2013-02-02 20:13:00,
2013-02-02 15:18:00,29.1,-0.6,30.12,SSW,207,2.0,4.0,27,0.00,,,-99.99,FreeWX-Wi 1.02,2013-02-02 20:18:00,
2013-02-02 15:23:00,28.6,-1.1,30.12,SSW,192,2.0,3.6,27,0.00,,,-99.99,FreeWX-Wi 1.02,2013-02-02 20:23:00,
2013-02-02 15:28:00,28.2,-1.5,30.12,SSW,196,2.0,5.4,27,0.00,,,-99.99,FreeWX-Wi 1.02,2013-02-02 20:28:00,
2013-02-02 15:33:00,28.0,-1.7,30.09,SSW,192,2.0,5.4,27,0.00,,,-99.99,FreeWX-Wi 1.02,2013-02-02 20:33:00,
2013-02-02 15:38:00,27.9,-1.7,30.09,SSW,203,2.0,4.9,27,0.00,,,-99.99,FreeWX-Wi 1.02,2013-02-02 20:38:00,
2013-02-02 15:43:00,27.9,-1.7,30.09,SW,224,2.0,3.6,27,0.00,,,-99.99,FreeWX-Wi 1.02,2013-02-02 20:43:00,
2013-02-02 15:48:00,27.9,-1.7,30.12,SW,234,1.0,4.0,27,0.00,,,-99.99,FreeWX-Wi 1.02,2013-02-02 20:48:00,
2013-02-02 15:53:00,27.7,-1.8,30.12,SW,235,1.0,4.0,27,0.00,,,-99.99,FreeWX-Wi 1.02,2013-02-02 20:53:00,
2013-02-02 15:58:00,27.5,-2.0,30.12,WSW,248,2.0,3.1,27,0.00,,,-99.99,FreeWX-Wi 1.02,2013-02-02 20:58:00,
2013-02-02 16:03:00,27.3,-2.2,30.09,West,280,1.0,5.4,27,0.00,,,-99.99,FreeWX-Wi 1.02,2013-02-02 21:03:00,
2013-02-02 16:08:00,27.3,-2.2,30.09,WNW,288,1.0,4.0,27,0.00,,,-99.99,FreeWX-Wi 1.02,2013-02-02 21:08:00,
2013-02-02 16:13:00,27.3,-2.2,30.09,NW,304,1.0,3.6,27,0.00,,,-99.99,FreeWX-Wi 1.02,2013-02-02 21:13:00,
2013-02-02 16:18:00,27.3,-2.2,30.09,WNW,297,1.0,4.0,27,0.00,,,-99.99,FreeWX-Wi 1.02,2013-02-02 21:18:00,
2013-02-02 16:24:00,27.5,-2.0,30.09,WNW,291,1.0,5.4,27,0.00,,,-99.99,FreeWX-Wi 1.02,2013-02-02 21:24:00,
2013-02-02 16:29:00,27.5,-2.0,30.09,WNW,282,1.0,5.8,27,0.00,,,-99.99,FreeWX-Wi 1.02,2013-02-02 21:29:00,
2013-02-02 16:34:00,27.5,-2.0,30.09,SW,229,1.0,7.6,27,0.00,,,-99.99,FreeWX-Wi 1.02,2013-02-02 21:34:00,
2013-02-02 16:39:00,27.3,-2.2,30.09,SW,236,1.0,3.1,27,0.00,,,-99.99,FreeWX-Wi 1.02,2013-02-02 21:39:00,
2013-02-02 16:44:00,27.3,-2.2,30.09,WSW,244,1.0,4.0,27,0.00,,,-99.99,FreeWX-Wi 1.02,2013-02-02 21:44:00,
2013-02-02 16:49:00,27.1,-2.4,30.09,NW,310,1.0,3.6,27,0.00,,,-99.99,FreeWX-Wi 1.02,2013-02-02 21:49:00,
2013-02-02 16:54:00,27.0,-2.6,30.09,NNW,330,1.0,5.8,27,0.00,,,-99.99,FreeWX-Wi 1.02,2013-02-02 21:54:00,
2013-02-02 16:59:00,26.8,-2.7,30.09,NW,308,1.0,3.6,27,0.00,,,-99.99,FreeWX-Wi 1.02,2013-02-02 21:59:00,
2013-02-02 17:04:00,26.6,-2.0,30.09,West,262,1.0,3.6,28,0.00,,,-99.99,FreeWX-Wi 1.02,2013-02-02 22:04:00,
2013-02-02 17:09:00,26.4,-2.2,30.09,SSW,199,1.0,4.9,28,0.00,,,-99.99,FreeWX-Wi 1.02,2013-02-02 22:09:00,
2013-02-02 17:14:00,26.2,-2.4,30.09,SSE,165,1.0,5.4,28,0.00,,,-99.99,FreeWX-Wi 1.02,2013-02-02 22:14:00,
2013-02-02 17:19:00,26.1,-2.6,30.09,South,170,1.0,3.6,28,0.00,,,-99.99,FreeWX-Wi 1.02,2013-02-02 22:19:00,
2013-02-02 17:24:00,26.1,-2.6,30.09,North,-999,0.0,0.0,28,0.00,,,-99.99,FreeWX-Wi 1.02,2013-02-02 22:24:00,
2013-02-02 17:29:00,26.1,-2.6,30.09,North,-999,0.0,4.0,28,0.00,,,-99.99,FreeWX-Wi 1.02,2013-02-02 22:29:00,
2013-02-02 17:34:00,25.9,-2.7,30.09,North,-999,0.0,0.0,28,0.00,,,-99.99,FreeWX-Wi 1.02,2013-02-02 22:34:00,
2013-02-02 17:39:00,26.1,-2.6,30.09,North,-999,0.0,0.0,28,0.00,,,-99.99,FreeWX-Wi 1.02,2013-02-02 22:39:00,
2013-02-02 17:44:00,26.1,-2.6,30.09,North,-999,0.0,0.0,28,0.00,,,-99.99,FreeWX-Wi 1.02,2013-02-02 22:44:00,
2013-02-02 17:49:00,26.1,-2.6,30.09,North,-999,0.0,2.7,28,0.00,,,-99.99,FreeWX-Wi 1.02,2013-02-02 22:49:00,
2013-02-02 17:54:00,26.2,-2.4,30.09,North,-999,0.0,0.0,28,0.00,,,-99.99,FreeWX-Wi 1.02,2013-02-02 22:54:00,
2013-02-02 17:59:00,26.4,-2.2,30.09,North,-999,0.0,3.1,28,0.00,,,-99.99,FreeWX-Wi 1.02,2013-02-02 22:59:00,
2013-02-02 18:04:00,26.4,-2.2,30.09,North,-999,0.0,2.7,28,0.00,,,-99.99,FreeWX-Wi 1.02,2013-02-02 23:04:00,
2013-02-02 18:09:00,26.6,-2.0,30.09,North,-999,0.0,4.0,28,0.00,,,-99.99,FreeWX-Wi 1.02,2013-02-02 23:09:00,
2013-02-02 18:14:00,26.6,-2.0,30.09,North,-999,0.0,0.0,28,0.00,,,-99.99,FreeWX-Wi 1.02,2013-02-02 23:14:00,
2013-02-02 18:19:00,26.4,-2.2,30.09,North,-999,0.0,0.0,28,0.00,,,-99.99,FreeWX-Wi 1.02,2013-02-02 23:19:00,
2013-02-02 18:24:00,26.6,-2.0,30.09,North,-999,0.0,0.0,28,0.00,,,-99.99,FreeWX-Wi 1.02,2013-02-02 23:24:00,
2013-02-02 18:29:00,27.0,-2.6,30.09,North,-999,0.0,3.1,27,0.00,,,-99.99,FreeWX-Wi 1.02,2013-02-02 23:29:00,
2013-02-02 18:34:00,27.0,-2.6,30.09,North,-999,0.0,2.7,27,0.00,,,-99.99,FreeWX-Wi 1.02,2013-02-02 23:34:00,
2013-02-02 18:39:00,27.0,-2.6,30.09,North,-999,0.0,3.6,27,0.00,,,-99.99,FreeWX-Wi 1.02,2013-02-02 23:39:00,
2013-02-02 18:44:00,27.1,-2.4,30.09,North,-999,0.0,4.9,27,0.00,,,-99.99,FreeWX-Wi 1.02,2013-02-02 23:44:00,
2013-02-02 18:49:00,27.1,-2.4,30.06,North,-999,0.0,2.2,27,0.00,,,-99.99,FreeWX-Wi 1.02,2013-02-02 23:49:00,
2013-02-02 18:54:00,27.1,-2.4,30.06,North,-999,0.0,0.0,27,0.00,,,-99.99,FreeWX-Wi 1.02,2013-02-02 23:54:00,
2013-02-02 18:59:00,27.1,-2.4,30.06,North,-999,0.0,3.6,27,0.00,,,-99.99,FreeWX-Wi 1.02,2013-02-02 23:59:00,
2013-02-02 19:04:00,27.1,-2.4,30.06,North,-999,0.0,2.7,27,0.00,,,-99.99,FreeWX-Wi 1.02,2013-02-03 00:04:00,
2013-02-02 19:09:00,27.1,-2.4,30.06,North,-999,0.0,2.2,27,0.00,,,-99.99,FreeWX-Wi 1.02,2013-02-03 00:09:00,
2013-02-02 19:14:00,27.1,-2.4,30.06,North,-999,0.0,2.7,27,0.00,,,-99.99,FreeWX-Wi 1.02,2013-02-03 00:14:00,
2013-02-02 19:19:00,27.1,-2.4,30.06,North,-999,0.0,3.1,27,0.00,,,-99.99,FreeWX-Wi 1.02,2013-02-03 00:19:00,
2013-02-02 19:24:00,27.1,-2.4,30.06,North,-999,0.0,3.6,27,0.00,,,-99.99,FreeWX-Wi 1.02,2013-02-03 00:24:00,
2013-02-02 19:29:00,27.0,-2.6,30.06,North,-999,0.0,2.7,27,0.00,,,-99.99,FreeWX-Wi 1.02,2013-02-03 00:29:00,
2013-02-02 19:34:00,27.0,-2.6,30.06,North,-999,0.0,0.0,27,0.00,,,-99.99,FreeWX-Wi 1.02,2013-02-03 00:34:00,
2013-02-02 19:39:00,27.0,-2.6,30.06,North,-999,0.0,0.0,27,0.00,,,-99.99,FreeWX-Wi 1.02,2013-02-03 00:39:00,
2013-02-02 19:44:00,27.0,-2.6,30.06,North,-999,0.0,2.2,27,0.00,,,-99.99,FreeWX-Wi 1.02,2013-02-03 00:44:00,
2013-02-02 19:49:00,27.0,-2.6,30.06,North,-999,0.0,3.1,27,0.00,,,-99.99,FreeWX-Wi 1.02,2013-02-03 00:49:00,
2013-02-02 19:54:00,27.0,-2.6,30.06,North,-999,0.0,3.1,27,0.00,,,-99.99,FreeWX-Wi 1.02,2013-02-03 00:54:00,
2013-02-02 19:59:00,27.1,-2.4,30.06,North,-999,0.0,0.0,27,0.00,,,-99.99,FreeWX-Wi 1.02,2013-02-03 00:59:00,
2013-02-02 20:04:00,27.1,-2.4,30.06,North,-999,0.0,0.0,27,0.00,,,-99.99,FreeWX-Wi 1.02,2013-02-03 01:04:00,
2013-02-02 20:09:00,27.1,-2.4,30.06,North,-999,0.0,0.0,27,0.00,,,-99.99,FreeWX-Wi 1.02,2013-02-03 01:09:00,
2013-02-02 20:14:00,27.1,-2.4,30.06,North,-999,0.0,0.0,27,0.00,,,-99.99,FreeWX-Wi 1.02,2013-02-03 01:14:00,
2013-02-02 20:19:00,27.1,-2.4,30.06,North,-999,0.0,2.7,27,0.00,,,-99.99,FreeWX-Wi 1.02,2013-02-03 01:19:00,
2013-02-02 20:24:00,27.3,-2.2,30.06,North,-999,0.0,2.7,27,0.00,,,-99.99,FreeWX-Wi 1.02,2013-02-03 01:24:00,
2013-02-02 20:29:00,27.3,-2.2,30.06,North,-999,0.0,0.0,27,0.00,,,-99.99,FreeWX-Wi 1.02,2013-02-03 01:29:00,
2013-02-02 20:34:00,27.3,-2.2,30.06,North,-999,0.0,0.0,27,0.00,,,-99.99,FreeWX-Wi 1.02,2013-02-03 01:34:00,
2013-02-02 20:39:00,27.3,-2.2,30.06,North,-999,0.0,5.8,27,0.00,,,-99.99,FreeWX-Wi 1.02,2013-02-03 01:39:00,
2013-02-02 20:44:00,27.3,-2.2,30.06,North,-999,0.0,3.6,27,0.00,,,-99.99,FreeWX-Wi 1.02,2013-02-03 01:44:00,
2013-02-02 20:49:00,27.3,-2.2,30.06,North,-999,0.0,0.0,27,0.00,,,-99.99,FreeWX-Wi 1.02,2013-02-03 01:49:00,
2013-02-02 20:54:00,27.3,-2.2,30.06,North,-999,0.0,3.1,27,0.00,,,-99.99,FreeWX-Wi 1.02,2013-02-03 01:54:00,
2013-02-02 20:59:00,27.3,-2.2,30.06,North,-999,0.0,0.0,27,0.00,,,-99.99,FreeWX-Wi 1.02,2013-02-03 01:59:00,
2013-02-02 21:04:00,27.1,-2.4,30.06,North,-999,0.0,3.6,27,0.00,,,-99.99,FreeWX-Wi 1.02,2013-02-03 02:04:00,
2013-02-02 21:09:00,27.1,-2.4,30.06,North,-999,0.0,0.0,27,0.00,,,-99.99,FreeWX-Wi 1.02,2013-02-03 02:09:00,
2013-02-02 21:14:00,27.0,-2.6,30.06,North,-999,0.0,3.6,27,0.00,,,-99.99,FreeWX-Wi 1.02,2013-02-03 02:14:00,
2013-02-02 21:19:00,27.0,-2.6,30.06,North,-999,0.0,0.0,27,0.00,,,-99.99,FreeWX-Wi 1.02,2013-02-03 02:19:00,
2013-02-02 21:24:00,27.0,-2.6,30.06,North,-999,0.0,0.0,27,0.00,,,-99.99,FreeWX-Wi 1.02,2013-02-03 02:24:00,
2013-02-02 21:29:00,26.8,-2.7,30.06,North,-999,0.0,4.9,27,0.00,,,-99.99,FreeWX-Wi 1.02,2013-02-03 02:29:00,
2013-02-02 21:34:00,26.6,-2.0,30.06,North,-999,0.0,4.9,28,0.00,,,-99.99,FreeWX-Wi 1.02,2013-02-03 02:34:00,
2013-02-02 21:39:00,26.2,-2.4,30.06,North,-999,0.0,0.0,28,0.00,,,-99.99,FreeWX-Wi 1.02,2013-02-03 02:39:00,
2013-02-02 21:44:00,26.1,-2.6,30.06,North,-999,0.0,0.0,28,0.00,,,-99.99,FreeWX-Wi 1.02,2013-02-03 02:44:00,
2013-02-02 21:49:00,25.9,-2.7,30.06,North,-999,0.0,0.0,28,0.00,,,-99.99,FreeWX-Wi 1.02,2013-02-03 02:49:00,
2013-02-02 21:54:00,25.7,-2.0,30.06,North,-999,0.0,2.7,29,0.00,,,-99.99,FreeWX-Wi 1.02,2013-02-03 02:54:00,
2013-02-02 21:59:00,25.7,-2.0,30.06,North,-999,0.0,0.0,29,0.00,,,-99.99,FreeWX-Wi 1.02,2013-02-03 02:59:00,
2013-02-02 22:04:00,25.5,-2.2,30.09,North,-999,0.0,0.0,29,0.00,,,-99.99,FreeWX-Wi 1.02,2013-02-03 03:04:00,
2013-02-02 22:09:00,25.5,-2.2,30.09,North,-999,0.0,0.0,29,0.00,,,-99.99,FreeWX-Wi 1.02,2013-02-03 03:09:00,
2013-02-02 22:14:00,25.3,-0.9,30.09,North,-999,0.0,5.8,31,0.00,,,-99.99,FreeWX-Wi 1.02,2013-02-03 03:14:00,
2013-02-02 22:19:00,25.2,-1.1,30.09,North,-999,0.0,4.5,31,0.00,,,-99.99,FreeWX-Wi 1.02,2013-02-03 03:19:00,
2013-02-02 22:24:00,25.0,0.7,30.09,WNW,287,1.0,6.3,34,0.00,,,-99.99,FreeWX-Wi 1.02,2013-02-03 03:24:00,
2013-02-02 22:29:00,25.0,3.6,30.09,West,279,1.0,3.6,39,0.00,,,-99.99,FreeWX-Wi 1.02,2013-02-03 03:29:00,
2013-02-02 22:34:00,24.6,4.8,30.09,West,275,1.0,0.0,42,0.00,,,-99.99,FreeWX-Wi 1.02,2013-02-03 03:34:00,
2013-02-02 22:39:00,24.4,7.5,30.09,West,275,1.0,4.0,48,0.00,,,-99.99,FreeWX-Wi 1.02,2013-02-03 03:39:00,
2013-02-02 22:44:00,24.4,7.5,30.09,North,-999,0.0,2.7,48,0.00,,,-99.99,FreeWX-Wi 1.02,2013-02-03 03:44:00,
2013-02-02 22:49:00,24.3,7.9,30.09,West,279,1.0,3.6,49,0.00,,,-99.99,FreeWX-Wi 1.02,2013-02-03 03:49:00,
2013-02-02 22:54:00,24.3,8.8,30.09,North,-999,0.0,0.0,51,0.00,,,-99.99,FreeWX-Wi 1.02,2013-02-03 03:54:00,
2013-02-02 22:59:00,24.1,9.0,30.09,North,-999,0.0,0.0,52,0.00,,,-99.99,FreeWX-Wi 1.02,2013-02-03 03:59:00,
2013-02-02 23:04:00,24.1,9.5,30.09,North,-999,0.0,3.1,53,0.00,,,-99.99,FreeWX-Wi 1.02,2013-02-03 04:04:00,
2013-02-02 23:09:00,23.9,9.7,30.09,North,-999,0.0,3.1,54,0.00,,,-99.99,FreeWX-Wi 1.02,2013-02-03 04:09:00,
2013-02-02 23:14:00,23.9,10.0,30.09,North,-999,0.0,0.0,55,0.00,,,-99.99,FreeWX-Wi 1.02,2013-02-03 04:14:00,
2013-02-02 23:19:00,23.7,9.9,30.06,North,-999,0.0,2.7,55,0.00,,,-99.99,FreeWX-Wi 1.02,2013-02-03 04:19:00,
2013-02-02 23:24:00,23.7,9.9,30.06,North,-999,0.0,0.0,55,0.00,,,-99.99,FreeWX-Wi 1.02,2013-02-03 04:24:00,
2013-02-02 23:29:00,23.7,10.8,30.06,North,-999,0.0,0.0,57,0.00,,,-99.99,FreeWX-Wi 1.02,2013-02-03 04:29:00,
2013-02-02 23:34:00,23.5,10.6,30.06,North,-999,0.0,2.2,57,0.00,,,-99.99,FreeWX-Wi 1.02,2013-02-03 04:34:00,
2013-02-02 23:39:00,23.5,10.6,30.06,North,-999,0.0,2.7,57,0.00,,,-99.99,FreeWX-Wi 1.02,2013-02-03 04:39:00,
2013-02-02 23:44:00,23.5,10.6,30.06,North,-999,0.0,0.0,57,0.00,,,-99.99,FreeWX-Wi 1.02,2013-02-03 04:44:00,
2013-02-02 23:49:00,23.5,10.6,30.06,North,-999,0.0,2.7,57,0.00,,,-99.99,FreeWX-Wi 1.02,2013-02-03 04:49:00,
2013-02-02 23:54:00,23.5,10.6,30.06,North,-999,0.0,0.0,57,0.00,,,-99.99,FreeWX-Wi 1.02,2013-02-03 04:54:00,
2013-02-02 23:59:00,23.5,10.9,30.06,North,-999,0.0,0.0,58,0.00,,,-99.99,FreeWX-Wi 1.02,2013-02-03 04:59:00,